createdAt,value
2022-08-27T00:01:25.917Z,19.00
2022-08-27T00:03:56.397Z,19.00
2022-08-27T00:06:24.897Z,19.00
2022-08-27T00:08:53.431Z,19.00
2022-08-27T00:11:22.123Z,19.00
2022-08-27T00:13:49.308Z,19.00
2022-08-27T00:16:16.609Z,19.00
2022-08-27T00:18:47.381Z,19.00
2022-08-27T00:21:16.988Z,19.00
2022-08-27T00:23:43.826Z,19.00
2022-08-27T00:26:10.728Z,19.00
2022-08-27T00:28:37.452Z,19.00
2022-08-27T00:31:04.125Z,18.90
2022-08-27T00:33:30.738Z,18.90
2022-08-27T00:35:58.039Z,18.90
2022-08-27T00:38:24.719Z,18.90
2022-08-27T00:40:51.641Z,18.90
2022-08-27T00:43:29.030Z,18.90
2022-08-27T00:46:02.448Z,18.90
2022-08-27T00:48:35.049Z,18.90
2022-08-27T00:51:02.339Z,18.90
2022-08-27T00:53:33.174Z,18.90
2022-08-27T00:56:24.645Z,18.90
2022-08-27T00:58:54.065Z,18.90
2022-08-27T01:01:28.196Z,18.90
2022-08-27T01:03:58.546Z,18.90
2022-08-27T01:06:30.836Z,18.90
2022-08-27T01:09:04.131Z,19.00
2022-08-27T01:11:31.727Z,18.90
2022-08-27T01:13:59.626Z,18.90
2022-08-27T01:16:31.911Z,19.00
2022-08-27T01:19:00.781Z,18.90
2022-08-27T01:21:27.324Z,18.90
2022-08-27T01:24:04.654Z,18.90
2022-08-27T01:26:32.086Z,18.90
2022-08-27T01:28:59.050Z,18.90
2022-08-27T01:31:25.750Z,18.90
2022-08-27T01:34:02.365Z,18.90
2022-08-27T01:36:29.013Z,18.90
2022-08-27T01:38:56.112Z,18.90
2022-08-27T01:41:24.667Z,18.90
2022-08-27T01:43:52.733Z,18.90
2022-08-27T01:46:25.195Z,18.90
2022-08-27T01:48:52.437Z,18.90
2022-08-27T01:51:19.415Z,19.00
2022-08-27T01:53:46.082Z,18.90
2022-08-27T01:56:12.873Z,18.90
2022-08-27T01:58:39.963Z,18.90
2022-08-27T02:01:10.443Z,18.90
2022-08-27T02:03:39.118Z,18.90
2022-08-27T02:06:09.151Z,18.90
2022-08-27T02:08:35.756Z,18.90
2022-08-27T02:11:03.184Z,18.90
2022-08-27T02:13:29.827Z,18.80
2022-08-27T02:15:56.841Z,18.90
2022-08-27T02:18:23.743Z,18.90
2022-08-27T02:20:50.364Z,18.90
2022-08-27T02:23:18.098Z,18.90
2022-08-27T02:25:47.205Z,18.90
2022-08-27T02:28:14.378Z,18.90
2022-08-27T02:30:41.455Z,18.80
2022-08-27T02:33:08.140Z,18.80
2022-08-27T02:35:38.914Z,18.80
2022-08-27T02:38:06.266Z,18.80
2022-08-27T02:40:33.223Z,18.80
2022-08-27T02:43:00.007Z,18.80
2022-08-27T02:45:26.704Z,18.70
2022-08-27T02:47:53.954Z,18.80
2022-08-27T02:50:20.781Z,18.80
2022-08-27T02:52:53.542Z,18.80
2022-08-27T02:55:20.951Z,18.80
2022-08-27T02:57:48.413Z,18.80
2022-08-27T03:00:19.324Z,18.80
2022-08-27T03:02:46.077Z,18.70
2022-08-27T03:05:14.393Z,18.70
2022-08-27T03:07:41.662Z,18.70
2022-08-27T03:10:10.774Z,18.60
2022-08-27T03:12:37.720Z,18.60
2022-08-27T03:15:09.826Z,18.60
2022-08-27T03:17:55.664Z,18.50
2022-08-27T03:20:24.195Z,18.40
2022-08-27T03:22:50.849Z,18.40
2022-08-27T03:25:18.308Z,18.30
2022-08-27T03:27:45.243Z,18.20
2022-08-27T03:30:16.615Z,18.20
2022-08-27T03:32:43.830Z,18.10
2022-08-27T03:35:11.649Z,18.10
2022-08-27T03:37:38.460Z,18.00
2022-08-27T03:40:08.056Z,17.90
2022-08-27T03:42:35.067Z,17.90
2022-08-27T03:45:01.707Z,17.80
2022-08-27T03:47:28.287Z,17.80
2022-08-27T03:49:54.872Z,17.80
2022-08-27T03:52:21.539Z,17.70
2022-08-27T03:54:48.450Z,17.70
2022-08-27T03:57:15.321Z,17.60
2022-08-27T03:59:41.932Z,17.60
2022-08-27T04:02:09.059Z,17.60
2022-08-27T04:04:36.024Z,17.50
2022-08-27T04:07:02.747Z,17.50
2022-08-27T04:09:29.503Z,17.50
2022-08-27T04:11:56.082Z,17.40
2022-08-27T04:14:26.704Z,17.40
2022-08-27T04:16:55.981Z,17.30
2022-08-27T04:19:27.331Z,17.30
2022-08-27T04:21:58.338Z,17.30
2022-08-27T04:24:24.930Z,17.30
2022-08-27T04:26:51.518Z,17.20
2022-08-27T04:29:18.098Z,17.20
2022-08-27T04:31:44.838Z,17.20
2022-08-27T04:34:11.507Z,17.20
2022-08-27T04:36:38.095Z,17.20
2022-08-27T04:39:04.752Z,17.10
2022-08-27T04:41:33.352Z,17.10
2022-08-27T04:44:04.570Z,17.20
2022-08-27T04:46:34.804Z,17.20
2022-08-27T04:49:10.109Z,17.20
2022-08-27T04:51:37.888Z,17.20
2022-08-27T04:54:07.573Z,17.20
2022-08-27T04:56:35.417Z,17.20
2022-08-27T04:59:03.946Z,17.30
2022-08-27T05:01:31.490Z,17.30
2022-08-27T05:03:58.641Z,17.30
2022-08-27T05:06:25.416Z,17.30
2022-08-27T05:08:53.767Z,17.30
2022-08-27T05:11:22.043Z,17.40
2022-08-27T05:13:48.991Z,17.40
2022-08-27T05:16:21.192Z,17.40
2022-08-27T05:18:50.350Z,17.40
2022-08-27T05:21:18.523Z,17.50
2022-08-27T05:23:45.126Z,17.50
2022-08-27T05:26:11.755Z,17.50
2022-08-27T05:28:38.370Z,17.50
2022-08-27T05:31:08.417Z,17.50
2022-08-27T05:33:35.560Z,17.60
2022-08-27T05:36:02.487Z,17.60
2022-08-27T05:38:30.596Z,17.60
2022-08-27T05:41:05.430Z,17.60
2022-08-27T05:43:32.367Z,17.60
2022-08-27T05:45:59.123Z,17.60
2022-08-27T05:48:25.947Z,17.70
2022-08-27T05:50:52.551Z,17.70
2022-08-27T05:53:19.189Z,17.70
2022-08-27T05:55:45.838Z,17.80
2022-08-27T05:58:33.769Z,17.80
2022-08-27T06:01:10.088Z,17.80
2022-08-27T06:03:38.065Z,17.80
2022-08-27T06:06:08.182Z,17.90
2022-08-27T06:08:35.416Z,17.90
2022-08-27T06:11:04.935Z,17.90
2022-08-27T06:13:33.046Z,17.90
2022-08-27T06:16:08.163Z,17.90
2022-08-27T06:18:35.784Z,18.00
2022-08-27T06:21:03.377Z,18.00
2022-08-27T06:23:30.135Z,18.00
2022-08-27T06:25:57.909Z,18.10
2022-08-27T06:28:29.472Z,18.10
2022-08-27T06:31:24.079Z,18.10
2022-08-27T06:33:52.226Z,18.10
2022-08-27T06:36:25.516Z,18.10
2022-08-27T06:38:54.225Z,18.20
2022-08-27T06:41:24.108Z,18.20
2022-08-27T06:43:52.144Z,18.30
2022-08-27T06:46:22.150Z,18.30
2022-08-27T06:48:52.004Z,18.30
2022-08-27T06:51:21.771Z,18.40
2022-08-27T06:53:48.766Z,18.40
2022-08-27T06:56:16.565Z,18.50
2022-08-27T06:58:44.092Z,18.50
2022-08-27T07:01:19.842Z,18.60
2022-08-27T07:03:46.493Z,18.60
2022-08-27T07:06:16.600Z,18.70
2022-08-27T07:08:53.028Z,18.70
2022-08-27T07:11:44.047Z,18.80
2022-08-27T07:14:10.792Z,18.90
2022-08-27T07:16:37.658Z,18.90
2022-08-27T07:19:07.761Z,19.00
2022-08-27T07:21:36.034Z,19.00
2022-08-27T07:24:05.356Z,19.00
2022-08-27T07:26:34.931Z,19.10
2022-08-27T07:29:04.188Z,19.10
2022-08-27T07:31:30.795Z,19.20
2022-08-27T07:33:57.828Z,19.20
2022-08-27T07:36:24.763Z,19.30
2022-08-27T07:38:56.969Z,19.40
2022-08-27T07:41:32.336Z,19.40
2022-08-27T07:44:21.075Z,19.50
2022-08-27T07:54:35.787Z,19.70
2022-08-27T07:57:02.395Z,19.70
2022-08-27T07:59:29.047Z,19.80
2022-08-27T08:01:56.695Z,19.90
2022-08-27T08:04:24.443Z,19.90
2022-08-27T08:06:52.763Z,19.90
2022-08-27T08:09:20.313Z,20.00
2022-08-27T08:11:47.137Z,20.00
2022-08-27T08:14:14.109Z,20.00
2022-08-27T08:16:40.754Z,20.10
2022-08-27T08:19:09.383Z,20.10
2022-08-27T08:21:36.695Z,20.20
2022-08-27T08:24:04.051Z,20.20
2022-08-27T08:26:30.963Z,20.30
2022-08-27T08:28:57.957Z,20.40
2022-08-27T08:31:24.652Z,20.40
2022-08-27T08:33:52.123Z,20.40
2022-08-27T08:36:22.464Z,20.40
2022-08-27T08:38:50.841Z,20.50
2022-08-27T08:41:43.220Z,20.50
2022-08-27T08:44:41.220Z,20.50
2022-08-27T08:47:13.381Z,20.50
2022-08-27T08:49:51.518Z,20.50
2022-08-27T08:52:48.639Z,20.50
2022-08-27T08:55:34.454Z,20.60
2022-08-27T08:58:08.684Z,20.60
2022-08-27T09:00:36.727Z,20.60
2022-08-27T09:03:03.492Z,20.70
2022-08-27T09:05:30.990Z,20.70
2022-08-27T09:08:35.388Z,20.80
2022-08-27T09:11:14.699Z,20.90
2022-08-27T09:13:51.150Z,20.90
2022-08-27T09:16:18.766Z,21.00
2022-08-27T09:18:45.716Z,21.10
2022-08-27T09:21:38.960Z,21.20
2022-08-27T09:24:43.385Z,21.20
2022-08-27T09:27:12.544Z,21.20
2022-08-27T09:29:50.916Z,21.20
2022-08-27T09:32:26.355Z,21.20
2022-08-27T09:34:59.580Z,21.20
2022-08-27T09:37:34.295Z,21.20
2022-08-27T09:40:26.318Z,21.30
2022-08-27T09:43:08.512Z,21.40
2022-08-27T09:45:35.675Z,21.50
2022-08-27T09:48:09.888Z,21.60
2022-08-27T09:50:43.969Z,21.70
2022-08-27T09:53:35.342Z,21.80
2022-08-27T09:56:09.126Z,21.90
2022-08-27T09:58:49.517Z,21.90
2022-08-27T10:01:25.613Z,21.80
2022-08-27T10:04:12.544Z,21.80
2022-08-27T10:06:47.095Z,21.80
2022-08-27T10:09:26.467Z,21.80
2022-08-27T10:12:32.349Z,21.90
2022-08-27T10:15:01.030Z,21.90
2022-08-27T10:17:37.071Z,22.00
2022-08-27T10:20:25.777Z,22.10
2022-08-27T10:23:31.308Z,22.20
2022-08-27T10:26:18.190Z,22.30
2022-08-27T10:28:56.281Z,22.30
2022-08-27T10:31:44.736Z,22.30
2022-08-27T10:34:23.546Z,22.30
2022-08-27T10:37:07.987Z,22.30
2022-08-27T10:39:45.032Z,22.40
2022-08-27T10:42:39.210Z,22.40
2022-08-27T10:45:24.039Z,22.40
2022-08-27T10:48:25.498Z,22.40
2022-08-27T10:51:02.582Z,22.40
2022-08-27T10:53:52.770Z,22.50
2022-08-27T10:56:30.615Z,22.60
2022-08-27T10:58:59.961Z,22.60
2022-08-27T11:01:57.817Z,22.60
2022-08-27T11:04:33.074Z,22.60
2022-08-27T11:07:14.896Z,22.50
2022-08-27T11:10:01.619Z,22.50
2022-08-27T11:12:42.752Z,22.50
2022-08-27T11:15:16.094Z,22.50
2022-08-27T11:18:07.855Z,22.50
2022-08-27T11:21:12.389Z,22.50
2022-08-27T11:23:54.204Z,22.50
2022-08-27T11:26:20.787Z,22.50
2022-08-27T11:29:01.321Z,22.50
2022-08-27T11:31:48.354Z,22.60
2022-08-27T11:34:25.000Z,22.80
2022-08-27T11:36:57.505Z,22.90
2022-08-27T11:39:48.650Z,23.10
2022-08-27T11:42:42.189Z,23.10
2022-08-27T11:45:24.668Z,23.10
2022-08-27T11:47:54.307Z,23.10
2022-08-27T11:50:24.035Z,23.10
2022-08-27T11:52:57.847Z,23.00
2022-08-27T11:55:30.745Z,23.00
2022-08-27T11:58:04.237Z,23.00
2022-08-27T12:00:38.210Z,22.90
2022-08-27T12:03:09.898Z,22.90
2022-08-27T12:05:44.630Z,22.90
2022-08-27T12:08:27.206Z,22.90
2022-08-27T12:11:11.941Z,22.90
2022-08-27T12:14:01.922Z,22.90
2022-08-27T12:16:28.552Z,23.00
2022-08-27T12:19:09.161Z,23.00
2022-08-27T12:22:04.220Z,23.00
2022-08-27T12:24:49.116Z,23.10
2022-08-27T12:27:21.463Z,23.10
2022-08-27T12:30:07.959Z,23.20
2022-08-27T12:32:44.307Z,23.30
2022-08-27T12:35:22.799Z,23.40
2022-08-27T12:38:04.332Z,23.40
2022-08-27T12:40:46.247Z,23.40
2022-08-27T12:43:28.241Z,23.50
2022-08-27T12:46:06.323Z,23.50
2022-08-27T12:48:56.945Z,23.50
2022-08-27T12:51:31.135Z,23.60
2022-08-27T12:54:12.276Z,23.80
2022-08-27T12:56:41.885Z,24.10
2022-08-27T12:59:39.934Z,24.40
2022-08-27T13:02:28.336Z,24.50
2022-08-27T13:04:55.239Z,24.60
2022-08-27T13:07:33.038Z,24.60
2022-08-27T13:10:23.916Z,24.50
2022-08-27T13:13:11.266Z,24.60
2022-08-27T13:15:47.314Z,24.60
2022-08-27T13:18:16.004Z,24.70
2022-08-27T13:20:43.665Z,24.80
2022-08-27T13:23:23.825Z,24.90
2022-08-27T13:26:08.884Z,25.00
2022-08-27T13:28:38.478Z,25.10
2022-08-27T13:31:07.237Z,25.10
2022-08-27T13:33:38.436Z,25.10
2022-08-27T13:36:06.656Z,25.10
2022-08-27T13:38:49.796Z,25.20
2022-08-27T13:41:28.863Z,25.20
2022-08-27T13:43:59.449Z,25.20
2022-08-27T13:46:29.769Z,25.20
2022-08-27T13:48:58.810Z,25.40
2022-08-27T13:51:31.469Z,25.50
2022-08-27T13:54:13.535Z,25.50
2022-08-27T13:56:49.019Z,25.40
2022-08-27T13:59:23.932Z,25.40
2022-08-27T14:02:04.814Z,25.60
2022-08-27T14:04:43.801Z,25.90
2022-08-27T14:07:18.596Z,26.00
2022-08-27T14:09:55.558Z,26.00
2022-08-27T14:12:33.388Z,25.90
2022-08-27T14:15:15.736Z,25.60
2022-08-27T14:17:45.863Z,25.50
2022-08-27T14:20:15.649Z,25.40
2022-08-27T14:22:43.652Z,25.50
2022-08-27T14:25:10.719Z,25.60
2022-08-27T14:27:38.714Z,25.50
2022-08-27T14:30:15.326Z,25.40
2022-08-27T14:32:42.531Z,25.40
2022-08-27T14:35:10.881Z,25.30
2022-08-27T14:37:41.916Z,25.30
2022-08-27T14:40:11.210Z,25.10
2022-08-27T14:42:38.803Z,25.00
2022-08-27T14:45:07.107Z,24.90
2022-08-27T14:47:35.836Z,24.70
2022-08-27T14:50:02.847Z,24.70
2022-08-27T14:52:29.436Z,24.80
2022-08-27T14:54:56.031Z,24.80
2022-08-27T14:57:22.666Z,24.90
2022-08-27T14:59:49.327Z,24.80
2022-08-27T15:02:18.874Z,24.90
2022-08-27T15:04:48.028Z,24.90
2022-08-27T15:07:15.020Z,24.80
2022-08-27T15:09:41.912Z,24.80
2022-08-27T15:12:15.401Z,24.70
2022-08-27T15:14:53.509Z,24.70
2022-08-27T15:17:33.320Z,24.80
2022-08-27T15:20:08.709Z,24.90
2022-08-27T15:22:37.772Z,24.80
2022-08-27T15:25:10.922Z,24.80
2022-08-27T15:27:39.138Z,24.70
2022-08-27T15:30:12.123Z,24.50
2022-08-27T15:32:44.687Z,24.30
2022-08-27T15:35:16.160Z,24.20
2022-08-27T15:37:43.735Z,24.10
2022-08-27T15:40:11.992Z,24.00
2022-08-27T15:42:38.828Z,23.90
2022-08-27T15:45:06.925Z,23.80
2022-08-27T15:47:34.046Z,23.80
2022-08-27T15:50:00.689Z,23.70
2022-08-27T15:52:36.323Z,23.70
2022-08-27T15:55:13.817Z,23.70
2022-08-27T15:57:40.408Z,23.60
2022-08-27T16:00:07.714Z,23.60
2022-08-27T16:02:34.476Z,23.50
2022-08-27T16:05:01.183Z,23.40
2022-08-27T16:07:28.349Z,23.30
2022-08-27T16:09:54.945Z,23.20
2022-08-27T16:12:25.681Z,23.20
2022-08-27T16:14:53.736Z,23.00
2022-08-27T16:17:21.065Z,23.00
2022-08-27T16:19:47.710Z,22.90
2022-08-27T16:22:16.046Z,22.80
2022-08-27T16:24:42.647Z,22.70
2022-08-27T16:27:09.495Z,22.70
2022-08-27T16:29:36.220Z,22.60
2022-08-27T16:32:03.543Z,22.60
2022-08-27T16:34:31.234Z,22.50
2022-08-27T16:36:57.811Z,22.50
2022-08-27T16:39:24.391Z,22.40
2022-08-27T16:41:51.137Z,22.30
2022-08-27T16:44:17.934Z,22.30
2022-08-27T16:46:44.723Z,22.20
2022-08-27T16:49:29.878Z,22.10
2022-08-27T16:51:56.499Z,22.10
2022-08-27T16:54:23.196Z,22.10
2022-08-27T16:56:49.845Z,22.10
2022-08-27T16:59:16.746Z,22.00
2022-08-27T17:01:46.581Z,22.00
2022-08-27T17:04:23.704Z,21.90
2022-08-27T17:06:55.212Z,21.90
2022-08-27T17:09:23.002Z,21.90
2022-08-27T17:11:57.165Z,21.80
2022-08-27T17:14:24.058Z,21.80
2022-08-27T17:16:51.947Z,21.70
2022-08-27T17:19:18.794Z,21.70
2022-08-27T17:21:45.833Z,21.60
2022-08-27T17:24:12.934Z,21.60
2022-08-27T17:26:40.060Z,21.60
2022-08-27T17:29:06.902Z,21.60
2022-08-27T17:31:37.071Z,21.50
2022-08-27T17:34:05.690Z,21.50
2022-08-27T17:36:33.270Z,21.50
2022-08-27T17:39:00.469Z,21.50
2022-08-27T17:41:39.287Z,21.50
2022-08-27T17:44:11.058Z,21.50
2022-08-27T17:46:37.748Z,21.50
2022-08-27T17:49:04.477Z,21.50
2022-08-27T17:51:31.061Z,21.40
2022-08-27T17:54:01.103Z,21.40
2022-08-27T17:56:28.841Z,21.40
2022-08-27T17:58:55.984Z,21.30
2022-08-27T18:01:28.753Z,21.30
2022-08-27T18:03:57.080Z,21.30
2022-08-27T18:06:25.064Z,21.20
2022-08-27T18:08:51.641Z,21.20
2022-08-27T18:11:18.964Z,21.20
2022-08-27T18:13:49.707Z,21.10
2022-08-27T18:16:16.346Z,21.10
2022-08-27T18:18:42.943Z,21.00
2022-08-27T18:21:10.045Z,21.00
2022-08-27T18:23:37.569Z,20.90
2022-08-27T18:26:06.493Z,20.90
2022-08-27T18:28:34.065Z,20.90
2022-08-27T18:31:03.652Z,20.80
2022-08-27T18:33:33.279Z,20.80
2022-08-27T18:35:59.918Z,20.80
2022-08-27T18:38:26.885Z,20.70
2022-08-27T18:40:54.582Z,20.70
2022-08-27T18:43:29.592Z,20.60
2022-08-27T18:45:56.347Z,20.60
2022-08-27T18:48:23.691Z,20.50
2022-08-27T18:50:57.027Z,20.50
2022-08-27T18:53:24.603Z,20.40
2022-08-27T18:55:52.437Z,20.40
2022-08-27T18:58:19.492Z,20.40
2022-08-27T19:00:49.097Z,20.30
2022-08-27T19:03:25.274Z,20.30
2022-08-27T19:05:54.782Z,20.20
2022-08-27T19:08:23.544Z,20.10
2022-08-27T19:10:50.216Z,20.10
2022-08-27T19:13:19.979Z,20.10
2022-08-27T19:15:57.636Z,20.10
2022-08-27T19:18:26.832Z,20.00
2022-08-27T19:20:53.924Z,20.00
2022-08-27T19:23:22.225Z,20.00
2022-08-27T19:25:50.338Z,19.90
2022-08-27T19:28:21.823Z,19.80
2022-08-27T19:30:48.560Z,19.80
2022-08-27T19:33:15.231Z,19.80
2022-08-27T19:35:42.488Z,19.70
2022-08-27T19:38:12.811Z,19.70
2022-08-27T19:40:40.156Z,19.60
2022-08-27T19:43:07.282Z,19.60
2022-08-27T19:45:34.843Z,19.50
2022-08-27T19:48:02.136Z,19.50
2022-08-27T19:50:28.816Z,19.40
2022-08-27T19:52:55.540Z,19.40
2022-08-27T19:55:22.181Z,19.40
2022-08-27T19:57:49.699Z,19.30
2022-08-27T20:00:19.692Z,19.30
2022-08-27T20:02:46.453Z,19.30
2022-08-27T20:05:18.420Z,19.30
2022-08-27T20:07:49.495Z,19.30
2022-08-27T20:10:18.219Z,19.20
2022-08-27T20:12:45.168Z,19.20
2022-08-27T20:15:12.267Z,19.10
2022-08-27T20:17:39.281Z,19.10
2022-08-27T20:20:06.514Z,19.10
2022-08-27T20:22:33.114Z,19.10
2022-08-27T20:24:59.799Z,19.00
2022-08-27T20:27:26.658Z,18.90
2022-08-27T20:29:54.759Z,19.00
2022-08-27T20:32:22.795Z,18.90
2022-08-27T20:34:51.471Z,18.90
2022-08-27T20:37:18.604Z,18.80
2022-08-27T20:39:45.466Z,18.80
2022-08-27T20:42:12.137Z,18.70
2022-08-27T20:44:38.776Z,18.70
2022-08-27T20:47:06.670Z,18.70
2022-08-27T20:49:35.225Z,18.60
2022-08-27T20:52:04.745Z,18.60
2022-08-27T20:54:33.844Z,18.50
2022-08-27T20:57:01.245Z,18.50
2022-08-27T20:59:48.374Z,18.50
2022-08-27T21:02:19.923Z,18.50
2022-08-27T21:04:47.597Z,18.40
2022-08-27T21:07:16.202Z,18.40
2022-08-27T21:09:55.736Z,18.40
2022-08-27T21:12:23.627Z,18.40
2022-08-27T21:14:51.158Z,18.30
2022-08-27T21:17:24.116Z,18.30
2022-08-27T21:19:50.714Z,18.20
2022-08-27T21:22:17.348Z,18.30
2022-08-27T21:24:44.008Z,18.20
2022-08-27T21:27:10.607Z,18.20
2022-08-27T21:29:37.252Z,18.10
2022-08-27T21:32:04.367Z,18.20
2022-08-27T21:34:31.058Z,18.10
2022-08-27T21:36:58.327Z,18.10
2022-08-27T21:39:25.047Z,18.10
2022-08-27T21:41:51.715Z,18.00
2022-08-27T21:44:18.363Z,18.00
2022-08-27T21:46:44.996Z,18.00
2022-08-27T21:49:11.655Z,17.90
2022-08-27T21:51:38.292Z,17.90
2022-08-27T21:54:04.995Z,17.90
2022-08-27T21:56:31.835Z,17.90
2022-08-27T21:58:58.423Z,17.80
2022-08-27T22:01:25.102Z,17.80
2022-08-27T22:03:52.571Z,17.80
2022-08-27T22:06:19.645Z,17.70
2022-08-27T22:08:46.271Z,17.70
2022-08-27T22:11:13.530Z,17.70
2022-08-27T22:13:40.827Z,17.60
2022-08-27T22:16:08.097Z,17.50
2022-08-27T22:18:34.756Z,17.50
2022-08-27T22:21:02.404Z,17.50
2022-08-27T22:23:29.323Z,17.40
2022-08-27T22:25:55.891Z,17.40
2022-08-27T22:28:22.649Z,17.30
2022-08-27T22:30:49.301Z,17.30
2022-08-27T22:33:16.323Z,17.30
2022-08-27T22:35:43.048Z,17.20
2022-08-27T22:38:09.951Z,17.20
2022-08-27T22:40:38.666Z,17.20
2022-08-27T22:43:06.254Z,17.10
2022-08-27T22:45:34.432Z,17.10
2022-08-27T22:48:01.053Z,17.10
2022-08-27T22:50:27.862Z,17.00
2022-08-27T22:52:54.582Z,17.00
2022-08-27T22:55:23.319Z,16.90
2022-08-27T22:57:53.097Z,16.90
2022-08-27T23:00:27.580Z,16.90
2022-08-27T23:02:55.223Z,16.80
2022-08-27T23:05:22.370Z,16.80
2022-08-27T23:07:49.219Z,16.80
2022-08-27T23:10:19.508Z,16.70
2022-08-27T23:12:47.195Z,16.70
2022-08-27T23:15:16.666Z,16.60
2022-08-27T23:17:43.383Z,16.60
2022-08-27T23:20:11.365Z,16.60
2022-08-27T23:22:38.745Z,16.50
2022-08-27T23:25:26.883Z,16.50
2022-08-27T23:27:53.636Z,16.50
2022-08-27T23:30:22.162Z,16.40
2022-08-27T23:32:53.625Z,16.40
2022-08-27T23:35:22.452Z,16.40
2022-08-27T23:37:50.450Z,16.30
2022-08-27T23:40:18.152Z,16.20
2022-08-27T23:42:45.679Z,16.20
2022-08-27T23:45:17.291Z,16.20
2022-08-27T23:47:43.947Z,16.10
2022-08-27T23:50:11.427Z,16.10
2022-08-27T23:52:38.654Z,16.10
2022-08-27T23:55:06.505Z,16.10
2022-08-27T23:57:33.164Z,16.10
2022-08-27T23:59:59.885Z,16.00
